createdAt,value
2022-09-03T11:02:22.712Z,11.80
2022-09-03T11:04:06.511Z,12.20
2022-09-03T11:06:06.464Z,10.60
2022-09-03T11:07:41.793Z,11.60
2022-09-03T11:09:25.630Z,10.40
2022-09-03T11:11:15.299Z,12.80
2022-09-03T11:12:53.112Z,10.80
2022-09-03T11:14:44.408Z,9.80
2022-09-03T11:16:46.944Z,14.20
2022-09-03T11:18:40.279Z,10.20
2022-09-03T11:20:21.332Z,8.80
2022-09-03T11:21:53.155Z,13.80
2022-09-03T11:23:25.037Z,11.80
2022-09-03T11:25:00.252Z,11.40
2022-09-03T11:26:32.041Z,11.60
2022-09-03T11:28:28.561Z,11.40
2022-09-03T11:30:07.603Z,13.00
2022-09-03T11:31:59.303Z,86.20
2022-09-03T11:33:31.571Z,99.50
2022-09-03T11:35:12.734Z,75.25
2022-09-03T11:36:48.121Z,99.50
2022-09-03T11:38:23.691Z,86.50
2022-09-03T11:40:07.159Z,67.00
2022-09-03T11:41:39.921Z,55.50
2022-09-03T11:43:28.427Z,52.50
2022-09-03T11:45:13.142Z,48.25
2022-09-03T11:46:57.832Z,51.25
2022-09-03T11:48:37.001Z,41.75
2022-09-03T11:50:30.370Z,45.00
2022-09-03T11:52:04.399Z,35.40
2022-09-03T11:53:36.803Z,36.20
2022-09-03T11:55:09.119Z,34.40
2022-09-03T11:56:41.564Z,44.00
2022-09-03T11:58:27.315Z,62.50
2022-09-03T12:00:11.120Z,64.00
2022-09-03T12:02:01.705Z,47.25
2022-09-03T12:03:45.176Z,45.50
2022-09-03T12:05:31.633Z,47.00
2022-09-03T12:07:22.539Z,37.00
2022-09-03T12:09:31.453Z,35.80
2022-09-03T12:11:16.759Z,29.60
2022-09-03T12:13:03.860Z,38.40
2022-09-03T12:14:49.848Z,62.25
2022-09-03T12:16:39.449Z,47.75
2022-09-03T12:18:23.835Z,36.25
2022-09-03T12:19:57.194Z,42.50
2022-09-03T12:21:29.071Z,34.40
2022-09-03T12:23:03.329Z,33.60
2022-09-03T12:24:38.403Z,35.40
2022-09-03T12:26:15.013Z,32.20
2022-09-03T12:27:46.946Z,33.80
2022-09-03T12:29:27.912Z,38.20
2022-09-03T12:31:30.676Z,32.40
2022-09-03T12:33:06.512Z,31.20
2022-09-03T12:34:38.263Z,29.00
2022-09-03T12:36:10.142Z,32.00
2022-09-03T12:41:31.216Z,26.00
2022-09-03T12:45:12.388Z,23.20
2022-09-03T12:46:44.419Z,23.80
2022-09-03T12:48:17.170Z,24.20
2022-09-03T12:49:53.065Z,23.60
2022-09-03T12:53:24.860Z,22.20
2022-09-03T12:55:00.839Z,20.80
2022-09-03T12:56:33.380Z,19.80
2022-09-03T12:58:14.045Z,21.00
2022-09-03T12:59:46.003Z,20.20
2022-09-03T13:01:31.565Z,16.20
2022-09-03T13:03:08.702Z,18.80
2022-09-03T13:04:40.518Z,16.80
2022-09-03T13:06:14.208Z,17.80
2022-09-03T13:07:48.393Z,16.40
2022-09-03T13:09:21.943Z,16.00
2022-09-03T13:10:55.446Z,16.40
2022-09-03T13:12:43.838Z,13.40
2022-09-03T13:14:17.594Z,16.00
2022-09-03T13:16:04.066Z,14.20
2022-09-03T13:17:58.905Z,15.60
2022-09-03T13:19:42.558Z,12.00
2022-09-03T13:21:39.111Z,13.80
2022-09-03T13:23:48.175Z,13.80
2022-09-03T13:25:28.424Z,13.00
2022-09-03T13:27:07.996Z,11.60
2022-09-03T13:28:45.494Z,11.00
2022-09-03T13:30:20.176Z,14.40
2022-09-03T13:32:06.226Z,115.25
2022-09-03T13:33:45.757Z,86.00
2022-09-03T13:35:43.475Z,55.50
2022-09-03T13:37:26.535Z,41.75
2022-09-03T13:39:06.081Z,32.00
2022-09-03T13:40:49.948Z,32.60
2022-09-03T13:42:34.030Z,28.40
2022-09-03T13:44:11.578Z,29.40
2022-09-03T13:45:52.621Z,28.40
2022-09-03T13:47:35.476Z,27.60
2022-09-03T13:49:57.851Z,27.80
2022-09-03T13:51:40.702Z,24.00
2022-09-03T13:53:22.756Z,23.20
2022-09-03T13:54:57.670Z,23.40
2022-09-03T13:56:38.257Z,25.40
2022-09-03T13:58:31.267Z,24.40
2022-09-03T14:00:12.918Z,22.40
2022-09-03T14:02:05.513Z,21.20
2022-09-03T14:03:57.902Z,22.20
2022-09-03T14:05:43.114Z,20.20
2022-09-03T14:07:35.336Z,18.60
2022-09-03T14:09:21.532Z,20.60
2022-09-03T14:10:55.988Z,15.40
2022-09-03T14:12:36.766Z,19.00
2022-09-03T14:14:16.638Z,14.00
2022-09-03T14:15:52.497Z,16.00
2022-09-03T14:17:50.544Z,12.40
2022-09-03T14:19:40.529Z,14.40
2022-09-03T14:21:26.203Z,14.60
2022-09-03T14:23:07.787Z,13.60
2022-09-03T14:25:17.973Z,14.20
2022-09-03T14:26:54.785Z,13.40
2022-09-03T14:28:40.697Z,8.20
2022-09-03T14:30:43.960Z,13.60
2022-09-03T14:32:48.327Z,13.00
2022-09-03T14:34:45.537Z,27.80
2022-09-03T14:36:29.685Z,28.00
2022-09-03T14:38:25.847Z,28.00
2022-09-03T14:40:17.294Z,26.00
2022-09-03T14:42:07.140Z,25.40
2022-09-03T14:43:46.425Z,23.00
2022-09-03T14:45:39.509Z,23.80
2022-09-03T14:47:19.174Z,22.60
2022-09-03T14:49:15.526Z,23.60
2022-09-03T14:51:16.434Z,22.80
2022-09-03T14:53:00.967Z,19.60
2022-09-03T14:54:35.458Z,22.60
2022-09-03T14:56:38.598Z,20.20
2022-09-03T14:59:09.000Z,20.20
2022-09-03T15:01:01.786Z,18.80
2022-09-03T15:02:36.752Z,20.40
2022-09-03T15:04:45.618Z,20.20
2022-09-03T15:06:31.699Z,21.20
2022-09-03T15:08:30.969Z,18.40
2022-09-03T15:10:12.955Z,15.20
2022-09-03T15:12:16.592Z,16.00
2022-09-03T15:14:15.423Z,37.00
2022-09-03T15:16:20.534Z,29.20
2022-09-03T15:17:58.779Z,30.00
2022-09-03T15:20:00.623Z,24.40
2022-09-03T15:21:32.380Z,30.20
2022-09-03T15:23:25.340Z,28.00
2022-09-03T15:25:15.650Z,26.00
2022-09-03T15:27:09.268Z,23.20
2022-09-03T15:28:55.471Z,23.20
2022-09-03T15:30:37.214Z,24.20
2022-09-03T15:32:35.570Z,26.20
2022-09-03T15:34:19.593Z,23.60
2022-09-03T15:36:12.501Z,25.60
2022-09-03T15:37:49.150Z,18.40
2022-09-03T15:39:28.864Z,20.20
2022-09-03T15:41:03.101Z,19.00
2022-09-03T15:42:36.235Z,25.80
2022-09-03T15:44:16.980Z,20.80
2022-09-03T15:46:14.056Z,36.60
2022-09-03T15:47:51.640Z,26.00
2022-09-03T15:49:28.888Z,31.60
2022-09-03T15:51:18.767Z,24.00
2022-09-03T15:53:04.490Z,26.00
2022-09-03T15:54:51.862Z,26.40
2022-09-03T15:56:32.859Z,21.80
2022-09-03T15:58:26.556Z,23.80
2022-09-03T16:00:08.613Z,25.40
2022-09-03T16:01:40.643Z,25.20
2022-09-03T16:03:20.426Z,22.40
2022-09-03T16:05:14.275Z,22.00
2022-09-03T16:07:05.315Z,23.00
2022-09-03T16:08:56.162Z,19.20
2022-09-03T16:10:47.572Z,21.20
2022-09-03T16:12:50.298Z,22.40
2022-09-03T16:14:41.978Z,28.40
2022-09-03T16:16:26.244Z,28.40
2022-09-03T16:18:08.913Z,28.40
2022-09-03T16:20:04.256Z,26.20
2022-09-03T16:21:42.075Z,28.80
2022-09-03T16:23:17.091Z,24.20
2022-09-03T16:24:54.119Z,26.80
2022-09-03T16:26:35.525Z,24.40
2022-09-03T16:28:14.897Z,24.00
2022-09-03T16:30:03.935Z,22.00
2022-09-03T16:31:51.031Z,23.20
2022-09-03T16:33:42.614Z,21.60
2022-09-03T16:35:41.050Z,23.20
2022-09-03T16:37:15.515Z,19.60
2022-09-03T16:38:54.259Z,20.20
2022-09-03T16:40:34.905Z,20.40
2022-09-03T16:42:18.514Z,17.40
2022-09-03T16:44:13.310Z,18.20
2022-09-03T16:45:55.193Z,19.40
2022-09-03T16:47:49.258Z,14.00
2022-09-03T16:49:27.170Z,17.00
2022-09-03T16:51:20.367Z,17.80
2022-09-03T16:52:53.999Z,15.40
2022-09-03T16:54:44.600Z,14.00
2022-09-03T16:57:02.210Z,13.40
2022-09-03T16:58:53.194Z,14.20
2022-09-03T17:00:47.597Z,20.40
2022-09-03T17:02:40.678Z,20.40
2022-09-03T17:04:31.948Z,22.00
2022-09-03T17:06:25.906Z,19.80
2022-09-03T17:08:18.442Z,19.00
2022-09-03T17:09:56.620Z,21.00
2022-09-03T17:12:09.289Z,18.80
2022-09-03T17:14:09.938Z,19.20
2022-09-03T17:15:49.597Z,19.20
2022-09-03T17:17:24.325Z,28.20
2022-09-03T17:19:12.049Z,30.00
2022-09-03T17:21:04.185Z,29.20
2022-09-03T17:23:09.644Z,20.40
2022-09-03T17:25:08.895Z,20.00
2022-09-03T17:26:53.308Z,19.80
2022-09-03T17:28:47.011Z,16.00
2022-09-03T17:30:18.824Z,16.40
2022-09-03T17:32:04.595Z,18.20
2022-09-03T17:34:04.840Z,24.40
2022-09-03T17:35:59.642Z,23.80
2022-09-03T17:37:44.020Z,24.20
2022-09-03T17:39:46.127Z,20.40
2022-09-03T17:41:56.547Z,19.80
2022-09-03T17:43:43.144Z,23.20
2022-09-03T17:45:15.656Z,22.60
2022-09-03T17:47:02.798Z,20.20
2022-09-03T17:48:46.318Z,24.60
2022-09-03T17:50:29.173Z,22.60
2022-09-03T17:52:12.117Z,22.20
2022-09-03T17:53:54.182Z,19.80
2022-09-03T17:56:01.895Z,19.20
2022-09-03T17:57:40.411Z,23.20
2022-09-03T17:59:44.245Z,19.00
2022-09-03T18:01:18.823Z,20.40
2022-09-03T18:03:07.630Z,19.80
2022-09-03T18:04:49.707Z,38.00
2022-09-03T18:06:41.663Z,31.40
2022-09-03T18:08:24.677Z,30.60
2022-09-03T18:10:17.229Z,31.00
2022-09-03T18:12:03.341Z,27.00
2022-09-03T18:13:55.919Z,28.40
2022-09-03T18:15:46.153Z,27.60
2022-09-03T18:17:43.671Z,28.80
2022-09-03T18:20:02.100Z,83.20
2022-09-03T18:21:55.039Z,66.00
2022-09-03T18:23:49.420Z,85.40
2022-09-03T18:25:40.080Z,57.50
2022-09-03T18:27:39.670Z,78.60
2022-09-03T18:29:35.952Z,72.25
2022-09-03T18:31:31.460Z,69.50
2022-09-03T18:33:21.896Z,69.50
2022-09-03T18:35:12.438Z,59.75
2022-09-03T18:37:02.720Z,70.25
2022-09-03T18:38:55.006Z,68.00
2022-09-03T18:40:47.057Z,61.75
2022-09-03T18:43:09.407Z,73.20
2022-09-03T18:45:21.976Z,71.40
2022-09-03T18:49:42.090Z,66.50
2022-09-03T18:52:06.552Z,85.40
2022-09-03T18:54:15.131Z,80.40
2022-09-03T18:56:11.114Z,78.00
2022-09-03T18:58:13.744Z,70.75
2022-09-03T19:00:35.114Z,67.25
2022-09-03T19:02:32.967Z,67.75
2022-09-03T19:04:23.386Z,66.00
2022-09-03T19:06:34.795Z,68.25
2022-09-03T19:08:40.158Z,68.00
2022-09-03T19:10:55.503Z,70.00
2022-09-03T19:12:59.068Z,76.00
2022-09-03T19:15:12.571Z,85.20
2022-09-03T19:17:24.320Z,78.40
2022-09-03T19:19:28.221Z,77.40
2022-09-03T19:21:50.387Z,77.00
2022-09-03T19:23:40.836Z,68.25
2022-09-03T19:25:32.762Z,63.75
2022-09-03T19:27:59.531Z,91.25
2022-09-03T19:30:09.169Z,82.20
2022-09-03T19:32:22.125Z,79.20
2022-09-03T19:34:23.956Z,96.25
2022-09-03T19:36:14.049Z,98.00
2022-09-03T19:38:25.735Z,91.25
2022-09-03T19:40:43.634Z,86.00
2022-09-03T19:42:43.217Z,89.75
2022-09-03T19:45:16.638Z,94.00
2022-09-03T19:47:10.549Z,105.50
2022-09-03T19:49:31.454Z,101.75
2022-09-03T19:51:37.347Z,102.25
2022-09-03T19:53:37.300Z,104.25
2022-09-03T19:55:28.948Z,101.50
2022-09-03T19:57:22.032Z,86.00
2022-09-03T19:59:16.973Z,87.00
2022-09-03T20:01:07.411Z,85.50
2022-09-03T20:02:58.146Z,85.25
2022-09-03T20:04:58.481Z,86.25
2022-09-03T20:06:49.934Z,87.20
2022-09-03T20:08:40.306Z,98.00
2022-09-03T20:10:31.789Z,101.50
2022-09-03T20:12:08.420Z,112.00
2022-09-03T20:14:00.356Z,102.25
2022-09-03T20:16:09.321Z,115.00
2022-09-03T20:18:02.350Z,108.75
2022-09-03T20:19:43.351Z,101.00
2022-09-03T20:21:40.285Z,101.25
2022-09-03T20:23:12.846Z,94.00
2022-09-03T20:24:58.610Z,90.00
2022-09-03T20:27:09.579Z,84.25
2022-09-03T20:29:05.764Z,85.50
2022-09-03T20:30:48.409Z,88.25
2022-09-03T20:32:28.837Z,77.40
2022-09-03T20:34:18.557Z,82.40
2022-09-03T20:35:50.721Z,73.60
2022-09-03T20:37:31.880Z,78.80
2022-09-03T20:39:09.689Z,75.25
2022-09-03T20:40:43.791Z,71.60
2022-09-03T20:42:37.395Z,64.50
2022-09-03T20:44:36.673Z,73.60
2022-09-03T20:46:27.491Z,71.50
2022-09-03T20:48:23.490Z,61.75
2022-09-03T20:50:04.222Z,57.50
2022-09-03T20:51:41.229Z,64.75
2022-09-03T20:53:43.480Z,90.25
2022-09-03T20:55:27.364Z,151.67
2022-09-03T20:57:11.260Z,134.67
2022-09-03T20:59:20.689Z,108.00
2022-09-03T21:01:17.084Z,96.75
2022-09-03T21:03:29.086Z,86.25
2022-09-03T21:05:17.761Z,89.50
2022-09-03T21:06:56.411Z,85.25
2022-09-03T21:09:05.156Z,91.25
2022-09-03T21:10:58.544Z,121.50
2022-09-03T21:12:36.112Z,103.00
2022-09-03T21:14:28.034Z,100.00
2022-09-03T21:16:23.918Z,103.00
2022-09-03T21:18:18.362Z,103.75
2022-09-03T21:20:25.437Z,100.75
2022-09-03T21:22:25.598Z,93.75
2022-09-03T21:24:07.219Z,104.50
2022-09-03T21:25:41.084Z,92.00
2022-09-03T21:27:16.879Z,91.75
2022-09-03T21:29:03.585Z,91.25
2022-09-03T21:30:38.209Z,81.60
2022-09-03T21:32:22.101Z,77.00
2022-09-03T21:34:08.936Z,76.20
2022-09-03T21:36:07.874Z,79.00
2022-09-03T21:37:40.282Z,76.20
2022-09-03T21:39:31.212Z,64.00
2022-09-03T21:41:12.887Z,75.00
2022-09-03T21:42:49.144Z,70.80
2022-09-03T21:44:39.032Z,66.50
2022-09-03T21:46:20.499Z,59.75
2022-09-03T21:47:58.390Z,59.75
2022-09-03T21:49:34.633Z,62.00
2022-09-03T21:51:27.892Z,54.50
2022-09-03T21:53:09.908Z,64.00
2022-09-03T21:54:41.754Z,57.00
2022-09-03T21:56:40.380Z,56.75
2022-09-03T21:58:33.741Z,56.75
2022-09-03T22:00:17.794Z,52.50
2022-09-03T22:02:07.223Z,54.75
2022-09-03T22:03:40.019Z,50.50
2022-09-03T22:05:11.783Z,47.00
2022-09-03T22:06:43.433Z,43.75
2022-09-03T22:08:50.604Z,50.75
2022-09-03T22:10:28.157Z,45.25
2022-09-03T22:12:07.539Z,46.25
2022-09-03T22:13:47.736Z,44.00
2022-09-03T22:15:20.204Z,41.25
2022-09-03T22:16:57.012Z,38.75
2022-09-03T22:18:35.893Z,41.25
2022-09-03T22:20:15.487Z,33.80
2022-09-03T22:21:59.569Z,37.40
2022-09-03T22:23:43.698Z,38.00
2022-09-03T22:25:19.544Z,37.80
2022-09-03T22:26:58.154Z,34.40
2022-09-03T22:28:40.266Z,33.40
2022-09-03T22:30:13.870Z,33.80
2022-09-03T22:32:01.885Z,35.00
2022-09-03T22:33:42.931Z,32.20
